createdAt,value
2022-10-04T00:01:52.968Z,11.70
2022-10-04T00:04:28.052Z,11.70
2022-10-04T00:07:02.587Z,11.70
2022-10-04T00:09:35.740Z,11.80
2022-10-04T00:12:05.787Z,11.80
2022-10-04T00:14:39.453Z,11.70
2022-10-04T00:17:13.278Z,11.70
2022-10-04T00:19:45.147Z,11.70
2022-10-04T00:22:17.436Z,11.70
2022-10-04T00:25:29.440Z,11.70
2022-10-04T00:28:44.070Z,11.70
2022-10-04T00:31:22.277Z,11.70
2022-10-04T00:33:55.744Z,11.70
2022-10-04T00:36:57.181Z,11.70
2022-10-04T00:39:44.093Z,11.70
2022-10-04T00:42:39.554Z,11.70
2022-10-04T00:45:18.017Z,11.70
2022-10-04T00:48:20.650Z,11.70
2022-10-04T00:50:54.253Z,11.70
2022-10-04T00:53:31.991Z,11.60
2022-10-04T00:56:04.288Z,11.60
2022-10-04T00:58:37.275Z,11.70
2022-10-04T01:01:06.177Z,11.70
2022-10-04T01:03:39.436Z,11.70
2022-10-04T01:06:11.629Z,11.70
2022-10-04T01:08:49.154Z,11.70
2022-10-04T01:11:20.400Z,11.70
2022-10-04T01:13:55.888Z,11.70
2022-10-04T01:16:26.258Z,11.70
2022-10-04T01:18:56.316Z,11.70
2022-10-04T01:21:29.527Z,11.60
2022-10-04T01:24:22.279Z,11.70
2022-10-04T01:26:50.708Z,11.60
2022-10-04T01:29:24.988Z,11.60
2022-10-04T01:31:55.058Z,11.60
2022-10-04T01:34:25.113Z,11.60
2022-10-04T01:36:55.447Z,11.60
2022-10-04T01:39:27.050Z,11.50
2022-10-04T01:42:00.227Z,11.50
2022-10-04T01:44:32.669Z,11.50
2022-10-04T01:47:06.341Z,11.50
2022-10-04T01:49:38.037Z,11.50
2022-10-04T01:52:12.337Z,11.50
2022-10-04T01:54:45.296Z,11.50
2022-10-04T01:57:18.592Z,11.50
2022-10-04T01:59:52.361Z,11.50
2022-10-04T02:02:27.158Z,11.60
2022-10-04T02:04:59.018Z,11.50
2022-10-04T02:07:31.596Z,11.40
2022-10-04T02:10:04.976Z,11.40
2022-10-04T02:12:34.921Z,11.40
2022-10-04T02:15:06.114Z,11.40
2022-10-04T02:17:40.973Z,11.40
2022-10-04T02:20:14.091Z,11.40
2022-10-04T02:22:43.352Z,11.40
2022-10-04T02:25:15.309Z,11.40
2022-10-04T02:27:43.405Z,11.40
2022-10-04T02:30:13.718Z,11.40
2022-10-04T02:33:00.565Z,11.40
2022-10-04T02:35:31.483Z,11.40
2022-10-04T02:38:06.847Z,11.40
2022-10-04T02:40:40.884Z,11.40
2022-10-04T02:43:15.055Z,11.40
2022-10-04T02:45:48.226Z,11.30
2022-10-04T02:48:28.494Z,11.40
2022-10-04T02:51:02.275Z,11.40
2022-10-04T02:53:38.222Z,11.40
2022-10-04T02:56:08.783Z,11.40
2022-10-04T02:58:42.395Z,11.30
2022-10-04T03:01:19.192Z,11.30
2022-10-04T03:03:48.517Z,11.40
2022-10-04T03:06:19.996Z,11.40
2022-10-04T03:08:51.816Z,11.40
2022-10-04T03:11:24.926Z,11.30
2022-10-04T03:13:56.018Z,11.30
2022-10-04T03:16:25.143Z,11.30
2022-10-04T03:18:57.295Z,11.30
2022-10-04T03:21:26.788Z,11.30
2022-10-04T03:23:55.636Z,11.30
2022-10-04T03:26:31.829Z,11.40
2022-10-04T03:29:00.692Z,11.40
2022-10-04T03:31:30.711Z,11.40
2022-10-04T03:33:59.635Z,11.40
2022-10-04T03:36:28.491Z,11.40
2022-10-04T03:38:58.507Z,11.50
2022-10-04T03:41:28.322Z,11.50
2022-10-04T03:43:59.443Z,11.50
2022-10-04T03:46:31.157Z,11.50
2022-10-04T03:48:59.559Z,11.50
2022-10-04T03:51:28.790Z,11.40
2022-10-04T03:53:59.226Z,11.40
2022-10-04T03:56:31.039Z,11.40
2022-10-04T03:58:59.926Z,11.40
2022-10-04T04:01:38.892Z,11.50
2022-10-04T04:04:18.646Z,11.50
2022-10-04T04:06:56.069Z,11.50
2022-10-04T04:09:29.733Z,11.50
2022-10-04T04:12:01.435Z,11.50
2022-10-04T04:14:29.961Z,11.60
2022-10-04T04:17:20.197Z,11.60
2022-10-04T04:19:48.531Z,11.60
2022-10-04T04:22:19.205Z,11.60
2022-10-04T04:24:47.972Z,11.60
2022-10-04T04:27:19.770Z,11.60
2022-10-04T04:29:51.813Z,11.60
2022-10-04T04:32:28.423Z,11.60
2022-10-04T04:35:00.721Z,11.60
2022-10-04T04:37:28.685Z,11.60
2022-10-04T04:39:57.892Z,11.60
2022-10-04T04:42:31.821Z,11.60
2022-10-04T04:45:02.683Z,11.60
2022-10-04T04:47:34.194Z,11.60
2022-10-04T04:50:07.801Z,11.60
2022-10-04T04:52:37.148Z,11.70
2022-10-04T04:55:06.651Z,11.70
2022-10-04T04:57:36.039Z,11.70
2022-10-04T05:00:04.845Z,11.80
2022-10-04T05:02:37.972Z,11.70
2022-10-04T05:05:24.323Z,11.80
2022-10-04T05:08:09.698Z,11.70
2022-10-04T05:10:39.399Z,11.70
2022-10-04T05:13:11.721Z,11.70
2022-10-04T05:15:44.065Z,11.70
2022-10-04T05:18:25.022Z,11.70
2022-10-04T05:20:55.042Z,11.70
2022-10-04T05:23:23.619Z,11.70
2022-10-04T05:25:52.703Z,11.80
2022-10-04T05:28:22.451Z,11.80
2022-10-04T05:31:20.520Z,11.80
2022-10-04T05:33:51.734Z,11.80
2022-10-04T05:36:51.328Z,11.90
2022-10-04T05:39:27.207Z,11.90
2022-10-04T05:42:02.445Z,12.00
2022-10-04T05:44:37.584Z,12.00
2022-10-04T05:47:08.628Z,12.10
2022-10-04T05:49:44.648Z,12.10
2022-10-04T05:52:18.047Z,12.10
2022-10-04T05:54:46.183Z,12.20
2022-10-04T05:57:36.609Z,12.20
2022-10-04T06:00:15.819Z,12.30
2022-10-04T06:03:10.688Z,12.30
2022-10-04T06:05:50.343Z,12.40
2022-10-04T06:08:29.477Z,12.40
2022-10-04T06:11:06.418Z,12.40
2022-10-04T06:14:04.537Z,12.40
2022-10-04T06:16:54.797Z,12.50
2022-10-04T06:19:58.805Z,12.50
2022-10-04T06:22:27.689Z,12.60
2022-10-04T06:24:59.369Z,12.60
2022-10-04T06:27:32.812Z,12.60
2022-10-04T06:30:04.275Z,12.60
2022-10-04T06:33:16.518Z,12.70
2022-10-04T06:36:20.761Z,12.70
2022-10-04T06:39:13.817Z,12.80
2022-10-04T06:42:15.743Z,12.90
2022-10-04T06:45:01.593Z,12.90
2022-10-04T06:47:48.118Z,12.90
2022-10-04T06:50:27.691Z,13.00
2022-10-04T06:53:20.646Z,13.00
2022-10-04T06:56:18.110Z,13.00
2022-10-04T06:59:07.606Z,13.00
2022-10-04T07:01:37.342Z,13.00
2022-10-04T07:04:18.225Z,13.10
2022-10-04T07:06:53.829Z,13.10
2022-10-04T07:09:27.017Z,13.20
2022-10-04T07:11:59.956Z,13.20
2022-10-04T07:14:32.963Z,13.40
2022-10-04T07:17:05.342Z,13.40
2022-10-04T07:19:38.368Z,13.40
2022-10-04T07:22:18.762Z,13.50
2022-10-04T07:24:59.749Z,13.50
2022-10-04T07:27:32.516Z,13.50
2022-10-04T07:30:04.671Z,13.40
2022-10-04T07:32:36.144Z,13.50
2022-10-04T07:35:14.111Z,13.50
2022-10-04T07:37:52.936Z,13.60
2022-10-04T07:40:26.100Z,13.60
2022-10-04T07:43:00.081Z,13.70
2022-10-04T07:45:32.732Z,13.70
2022-10-04T07:48:11.157Z,13.80
2022-10-04T07:50:45.998Z,13.80
2022-10-04T07:53:19.434Z,13.90
2022-10-04T07:55:56.396Z,13.90
2022-10-04T07:58:42.093Z,13.90
2022-10-04T08:01:27.203Z,13.90
2022-10-04T08:04:15.252Z,14.00
2022-10-04T08:06:56.433Z,14.00
2022-10-04T08:09:37.478Z,14.00
2022-10-04T08:12:17.106Z,14.10
2022-10-04T08:14:56.512Z,14.10
2022-10-04T08:17:49.025Z,14.20
2022-10-04T08:20:40.557Z,14.30
2022-10-04T08:23:32.790Z,14.30
2022-10-04T08:26:14.013Z,14.40
2022-10-04T08:29:08.035Z,14.40
2022-10-04T08:31:52.671Z,14.40
2022-10-04T08:34:34.103Z,14.50
2022-10-04T08:37:11.964Z,14.60
2022-10-04T08:39:59.110Z,14.70
2022-10-04T08:42:47.595Z,14.80
2022-10-04T08:45:44.862Z,14.90
2022-10-04T08:48:38.771Z,14.90
2022-10-04T08:51:41.238Z,14.90
2022-10-04T08:54:46.602Z,15.00
2022-10-04T08:57:39.779Z,15.10
2022-10-04T09:00:18.114Z,15.10
2022-10-04T09:03:26.680Z,15.20
2022-10-04T09:06:07.839Z,15.30
2022-10-04T09:09:24.664Z,15.50
2022-10-04T09:12:20.174Z,15.60
2022-10-04T09:15:18.963Z,15.60
2022-10-04T09:17:54.985Z,15.70
2022-10-04T09:20:38.811Z,15.80
2022-10-04T09:23:23.162Z,15.80
2022-10-04T09:26:06.547Z,15.80
2022-10-04T09:29:09.429Z,15.80
2022-10-04T09:32:08.858Z,15.90
2022-10-04T09:34:51.976Z,15.90
2022-10-04T09:37:35.184Z,15.90
2022-10-04T09:40:43.215Z,15.90
2022-10-04T09:43:50.492Z,15.90
2022-10-04T09:46:33.129Z,15.80
2022-10-04T09:49:16.566Z,15.80
2022-10-04T09:52:09.730Z,15.80
2022-10-04T09:54:58.243Z,15.80
2022-10-04T09:57:33.781Z,15.60
2022-10-04T10:00:23.563Z,15.60
2022-10-04T10:03:35.514Z,15.60
2022-10-04T10:06:51.639Z,15.50
2022-10-04T10:09:46.401Z,15.60
2022-10-04T10:12:49.665Z,15.50
2022-10-04T10:15:28.135Z,15.60
2022-10-04T10:18:06.121Z,15.60
2022-10-04T10:20:53.486Z,15.90
2022-10-04T10:23:53.321Z,16.30
2022-10-04T10:26:49.525Z,16.70
2022-10-04T10:29:49.410Z,17.00
2022-10-04T10:32:48.938Z,17.20
2022-10-04T10:35:49.190Z,17.30
2022-10-04T10:38:27.306Z,17.40
2022-10-04T10:41:20.093Z,17.50
2022-10-04T10:44:19.884Z,17.50
2022-10-04T10:46:59.764Z,17.50
2022-10-04T10:49:42.024Z,17.60
2022-10-04T10:52:48.063Z,17.70
2022-10-04T10:56:09.293Z,17.70
2022-10-04T10:59:10.392Z,17.70
2022-10-04T11:02:06.427Z,17.70
2022-10-04T11:04:54.815Z,17.90
2022-10-04T11:07:44.708Z,18.20
2022-10-04T11:10:43.550Z,18.40
2022-10-04T11:13:30.840Z,18.60
2022-10-04T11:16:35.134Z,18.70
2022-10-04T11:19:40.799Z,18.60
2022-10-04T11:22:45.400Z,18.50
2022-10-04T11:25:39.826Z,18.50
2022-10-04T11:28:16.785Z,18.40
2022-10-04T11:31:17.707Z,18.40
2022-10-04T11:34:19.762Z,18.40
2022-10-04T11:37:03.246Z,18.50
2022-10-04T11:39:55.567Z,18.40
2022-10-04T11:42:38.686Z,18.30
2022-10-04T11:45:38.390Z,18.20
2022-10-04T11:48:22.056Z,18.20
2022-10-04T11:51:11.057Z,18.10
2022-10-04T11:54:15.322Z,18.20
2022-10-04T11:57:12.243Z,18.10
2022-10-04T11:59:50.938Z,18.20
2022-10-04T12:03:17.785Z,18.20
2022-10-04T12:06:05.446Z,18.40
2022-10-04T12:08:44.596Z,18.40
2022-10-04T12:12:01.212Z,18.40
2022-10-04T12:14:42.132Z,18.40
2022-10-04T12:17:38.511Z,18.30
2022-10-04T12:20:30.791Z,18.20
2022-10-04T12:23:23.853Z,18.10
2022-10-04T12:26:14.603Z,18.10
2022-10-04T12:29:18.379Z,18.10
2022-10-04T12:31:49.350Z,17.90
2022-10-04T12:34:25.221Z,17.90
2022-10-04T12:37:13.763Z,17.80
2022-10-04T12:39:54.947Z,17.80
2022-10-04T12:42:37.003Z,17.80
2022-10-04T12:45:30.901Z,17.70
2022-10-04T12:48:17.959Z,17.60
2022-10-04T12:51:00.192Z,17.40
2022-10-04T12:53:39.591Z,17.40
2022-10-04T12:56:21.933Z,17.40
2022-10-04T12:59:16.419Z,17.40
2022-10-04T13:01:56.762Z,17.50
2022-10-04T13:04:34.226Z,17.40
2022-10-04T13:07:24.050Z,17.40
2022-10-04T13:10:32.414Z,17.30
2022-10-04T13:13:51.012Z,17.30
2022-10-04T13:36:54.542Z,17.50
2022-10-04T13:40:11.988Z,17.50
2022-10-04T13:42:56.912Z,17.50
2022-10-04T13:45:38.291Z,17.50
2022-10-04T13:48:34.770Z,17.60
2022-10-04T13:51:32.235Z,17.60
2022-10-04T13:54:40.926Z,17.60
2022-10-04T13:57:31.155Z,17.60
2022-10-04T14:00:37.340Z,17.50
2022-10-04T14:03:23.503Z,17.40
2022-10-04T14:06:21.154Z,17.30
2022-10-04T14:12:45.894Z,17.30
2022-10-04T14:16:07.368Z,17.30
2022-10-04T14:19:04.234Z,17.30
2022-10-04T14:22:11.516Z,17.30
2022-10-04T14:25:20.998Z,17.30
2022-10-04T14:28:36.035Z,17.20
2022-10-04T14:31:47.872Z,17.20
2022-10-04T14:34:42.047Z,17.10
2022-10-04T14:37:47.250Z,17.10
2022-10-04T14:40:50.650Z,17.00
2022-10-04T14:43:54.741Z,16.90
2022-10-04T14:46:29.686Z,16.80
2022-10-04T14:49:15.440Z,16.80
2022-10-04T14:52:06.294Z,16.70
2022-10-04T14:54:45.884Z,16.60
2022-10-04T14:57:22.828Z,16.40
2022-10-04T15:00:20.702Z,16.40
2022-10-04T15:03:14.569Z,16.30
2022-10-04T15:06:01.111Z,16.30
2022-10-04T15:09:07.431Z,16.20
2022-10-04T15:11:41.855Z,16.20
2022-10-04T15:14:28.556Z,16.10
2022-10-04T15:16:59.260Z,16.10
2022-10-04T15:19:30.716Z,16.10
2022-10-04T15:22:07.692Z,16.10
2022-10-04T15:24:50.868Z,16.00
2022-10-04T15:27:49.613Z,16.00
2022-10-04T15:30:32.982Z,16.00
2022-10-04T15:33:21.492Z,15.90
2022-10-04T15:36:26.648Z,15.70
2022-10-04T15:39:05.436Z,15.70
2022-10-04T15:41:42.988Z,15.60
2022-10-04T15:44:48.960Z,15.60
2022-10-04T15:47:23.465Z,15.60
2022-10-04T15:50:04.568Z,15.50
2022-10-04T15:53:05.970Z,15.40
2022-10-04T15:56:06.800Z,15.30
2022-10-04T15:58:56.422Z,15.20
2022-10-04T16:01:55.967Z,15.10
2022-10-04T16:04:41.556Z,15.10
2022-10-04T16:07:36.268Z,15.10
2022-10-04T16:10:23.509Z,15.00
2022-10-04T16:13:18.652Z,15.00
2022-10-04T16:15:50.388Z,15.00
2022-10-04T16:18:40.518Z,15.00
2022-10-04T16:21:26.713Z,15.00
2022-10-04T16:24:39.290Z,14.90
2022-10-04T16:27:46.895Z,14.90
2022-10-04T16:30:27.571Z,14.80
2022-10-04T16:33:28.736Z,14.70
2022-10-04T16:36:10.108Z,14.70
2022-10-04T16:39:07.601Z,14.60
2022-10-04T16:41:44.224Z,14.50
2022-10-04T16:44:30.284Z,14.50
2022-10-04T16:47:04.004Z,14.30
2022-10-04T16:49:41.271Z,14.20
2022-10-04T16:52:29.401Z,14.20
2022-10-04T16:55:32.535Z,14.10
2022-10-04T16:58:43.111Z,14.00
2022-10-04T17:01:43.426Z,14.00
2022-10-04T17:04:40.431Z,13.90
2022-10-04T17:07:23.292Z,13.80
2022-10-04T17:10:02.765Z,13.60
2022-10-04T17:12:45.531Z,13.50
2022-10-04T17:15:35.059Z,13.50
2022-10-04T17:18:21.242Z,13.50
2022-10-04T17:20:57.960Z,13.50
2022-10-04T17:23:45.574Z,13.40
2022-10-04T17:26:25.904Z,13.40
2022-10-04T17:28:59.545Z,13.40
2022-10-04T17:31:33.945Z,13.40
2022-10-04T17:34:14.645Z,13.30
2022-10-04T17:36:46.221Z,13.30
2022-10-04T17:39:29.260Z,13.20
2022-10-04T17:42:07.820Z,13.20
2022-10-04T17:44:56.882Z,13.10
2022-10-04T17:47:50.843Z,13.10
2022-10-04T17:50:43.128Z,13.00
2022-10-04T17:53:37.712Z,13.00
2022-10-04T17:56:09.630Z,12.90
2022-10-04T17:58:46.972Z,12.80
2022-10-04T18:01:20.505Z,12.80
2022-10-04T18:03:54.790Z,12.70
2022-10-04T18:06:33.585Z,12.70
2022-10-04T18:09:05.839Z,12.70
2022-10-04T18:11:43.786Z,12.70
2022-10-04T18:14:22.264Z,12.70
2022-10-04T18:16:57.052Z,12.70
2022-10-04T18:19:38.096Z,12.60
2022-10-04T18:22:15.482Z,12.60
2022-10-04T18:24:47.062Z,12.50
2022-10-04T18:27:22.586Z,12.60
2022-10-04T18:30:14.416Z,12.60
2022-10-04T18:32:50.549Z,12.60
2022-10-04T18:35:27.268Z,12.50
2022-10-04T18:38:01.372Z,12.50
2022-10-04T18:40:36.038Z,12.50
2022-10-04T18:43:15.943Z,12.40
2022-10-04T18:46:07.325Z,12.40
2022-10-04T18:48:54.613Z,12.30
2022-10-04T18:51:33.860Z,12.30
2022-10-04T18:54:25.128Z,12.20
2022-10-04T18:57:08.171Z,12.20
2022-10-04T19:00:04.307Z,12.10
2022-10-04T19:02:44.174Z,12.10
2022-10-04T19:05:23.207Z,12.00
2022-10-04T19:08:04.251Z,12.00
2022-10-04T19:10:39.020Z,12.00
2022-10-04T19:13:36.238Z,12.00
2022-10-04T19:16:28.820Z,11.90
2022-10-04T19:19:11.620Z,11.90
2022-10-04T19:21:47.784Z,11.80
2022-10-04T19:24:33.828Z,11.80
2022-10-04T19:27:05.062Z,11.80
2022-10-04T19:29:51.188Z,11.80
2022-10-04T19:32:30.267Z,11.80
2022-10-04T19:35:13.054Z,11.80
2022-10-04T19:37:52.463Z,11.80
2022-10-04T19:40:28.548Z,11.70
2022-10-04T19:43:04.771Z,11.70
2022-10-04T19:45:39.947Z,11.70
2022-10-04T19:48:20.721Z,11.60
2022-10-04T19:50:59.699Z,11.60
2022-10-04T19:53:37.195Z,11.60
2022-10-04T19:56:15.508Z,11.60
2022-10-04T19:58:45.586Z,11.60
2022-10-04T20:01:17.962Z,11.60
2022-10-04T20:03:46.700Z,11.60
2022-10-04T20:06:22.607Z,11.50
2022-10-04T20:09:02.449Z,11.50
2022-10-04T20:11:48.824Z,11.50
2022-10-04T20:14:45.032Z,11.40
2022-10-04T20:17:31.926Z,11.40
2022-10-04T20:20:00.240Z,11.40
2022-10-04T20:22:30.855Z,11.40
2022-10-04T20:25:01.344Z,11.30
2022-10-04T20:28:02.712Z,11.30
2022-10-04T20:30:49.179Z,11.20
2022-10-04T20:33:50.874Z,11.30
2022-10-04T20:36:52.031Z,11.20
2022-10-04T20:40:00.420Z,11.20
2022-10-04T20:42:38.358Z,11.20
2022-10-04T20:45:24.199Z,11.10
2022-10-04T20:47:54.835Z,11.10
2022-10-04T20:50:35.959Z,11.10
2022-10-04T20:53:08.048Z,11.10
2022-10-04T20:55:39.106Z,11.10
2022-10-04T20:58:26.062Z,11.10
2022-10-04T21:00:55.708Z,11.00
2022-10-04T21:03:25.741Z,11.00
2022-10-04T21:06:02.681Z,11.00
2022-10-04T21:08:31.286Z,11.00
2022-10-04T21:11:19.782Z,11.00
2022-10-04T21:13:56.493Z,11.00
2022-10-04T21:16:45.663Z,10.90
2022-10-04T21:19:50.697Z,10.90
2022-10-04T21:22:36.073Z,10.90
2022-10-04T21:25:07.258Z,10.90
2022-10-04T21:27:37.330Z,10.90
2022-10-04T21:30:13.908Z,10.90
2022-10-04T21:32:42.138Z,10.90
2022-10-04T21:35:11.478Z,10.80
2022-10-04T21:37:39.840Z,10.80
2022-10-04T21:40:09.776Z,10.80
2022-10-04T21:42:38.080Z,10.80
2022-10-04T21:45:08.760Z,10.80
2022-10-04T21:47:37.263Z,10.80
2022-10-04T21:50:05.883Z,10.80
2022-10-04T21:52:34.139Z,10.70
2022-10-04T21:55:02.291Z,10.70
2022-10-04T21:57:35.406Z,10.70
2022-10-04T22:00:04.520Z,10.70
2022-10-04T22:02:41.868Z,10.70
2022-10-04T22:05:10.759Z,10.70
2022-10-04T22:07:38.972Z,10.70
2022-10-04T22:10:07.527Z,10.60
2022-10-04T22:12:35.742Z,10.60
2022-10-04T22:15:04.058Z,10.60
2022-10-04T22:17:32.275Z,10.60
2022-10-04T22:20:01.859Z,10.60
2022-10-04T22:22:32.713Z,10.50
2022-10-04T22:25:03.565Z,10.60
2022-10-04T22:27:31.778Z,10.60
2022-10-04T22:30:01.026Z,10.50
2022-10-04T22:32:31.832Z,10.50
2022-10-04T22:35:07.329Z,10.60
2022-10-04T22:37:37.867Z,10.50
2022-10-04T22:40:08.058Z,10.50
2022-10-04T22:42:36.331Z,10.50
2022-10-04T22:45:07.400Z,10.50
2022-10-04T22:47:35.738Z,10.50
2022-10-04T22:50:18.410Z,10.50
2022-10-04T22:52:46.611Z,10.50
2022-10-04T22:55:19.512Z,10.50
2022-10-04T22:57:47.806Z,10.50
2022-10-04T23:00:16.379Z,10.50
2022-10-04T23:02:44.679Z,10.40
2022-10-04T23:05:16.127Z,10.50
2022-10-04T23:07:44.828Z,10.50
2022-10-04T23:10:14.143Z,10.50
2022-10-04T23:12:46.489Z,10.50
2022-10-04T23:15:20.008Z,10.50
2022-10-04T23:17:55.286Z,10.50
2022-10-04T23:20:25.066Z,10.50
2022-10-04T23:22:56.663Z,10.60
2022-10-04T23:25:27.793Z,10.60
2022-10-04T23:27:59.920Z,10.60
2022-10-04T23:30:28.158Z,10.60
2022-10-04T23:33:00.530Z,10.50
2022-10-04T23:35:32.679Z,10.60
2022-10-04T23:38:07.538Z,10.60
2022-10-04T23:40:35.857Z,10.60
2022-10-04T23:43:06.249Z,10.60
2022-10-04T23:45:35.439Z,10.60
2022-10-04T23:48:03.847Z,10.70
2022-10-04T23:50:35.214Z,10.70
2022-10-04T23:53:06.543Z,10.70
2022-10-04T23:55:37.322Z,10.70
2022-10-04T23:58:15.302Z,10.70
